createdAt,value
2018-06-25T14:31:11.613Z,26.44
2018-06-25T14:33:44.287Z,26.67
2018-06-25T14:36:14.997Z,26.47
2018-06-25T14:38:45.521Z,26.53
2018-06-25T14:41:16.076Z,26.25
2018-06-25T14:43:46.931Z,26.11
2018-06-25T14:46:17.354Z,26.18
2018-06-25T14:48:48.699Z,26.00
2018-06-25T14:51:19.507Z,25.57
2018-06-25T14:53:49.999Z,25.59
2018-06-25T14:56:20.347Z,25.50
2018-06-25T14:58:50.658Z,25.05
2018-06-25T15:01:21.298Z,24.92
2018-06-25T15:03:51.766Z,24.94
2018-06-25T15:06:22.220Z,24.78
2018-06-25T15:08:52.771Z,24.70
2018-06-25T15:11:23.415Z,24.24
2018-06-25T15:13:53.883Z,24.19
2018-06-25T15:16:24.275Z,24.24
2018-06-25T15:18:54.684Z,24.24
2018-06-25T15:21:25.135Z,24.06
2018-06-25T15:23:55.887Z,24.04
2018-06-25T15:26:26.112Z,23.95
2018-06-25T15:28:56.602Z,24.02
2018-06-25T15:31:27.125Z,23.90
2018-06-25T15:33:57.619Z,23.96
2018-06-25T15:36:28.065Z,23.96
2018-06-25T15:38:58.651Z,24.12
2018-06-25T15:41:29.452Z,24.21
2018-06-25T15:43:59.783Z,24.14
2018-06-25T15:46:30.330Z,23.86
2018-06-25T15:49:00.848Z,23.84
2018-06-25T15:51:31.389Z,23.85
2018-06-25T15:54:01.638Z,23.65
2018-06-25T15:56:32.019Z,23.58
2018-06-25T16:08:52.869Z,23.47
2018-06-25T16:17:51.170Z,23.09
2018-06-25T16:20:21.363Z,23.20
2018-06-25T16:22:51.734Z,23.19
2018-06-25T16:25:22.359Z,23.15
2018-06-25T16:27:52.667Z,22.98
2018-06-25T16:30:24.224Z,22.89
2018-06-25T16:32:54.749Z,22.86
2018-06-25T16:35:25.089Z,22.79
2018-06-25T16:37:55.621Z,22.74
2018-06-25T16:40:26.407Z,22.62
2018-06-25T16:42:57.002Z,22.63
2018-06-25T16:45:27.297Z,22.66
2018-06-25T16:47:57.605Z,22.60
2018-06-25T16:50:27.995Z,22.70
2018-06-25T16:52:58.559Z,22.61
2018-06-25T16:55:29.114Z,22.58
2018-06-25T16:57:59.653Z,22.61
2018-06-25T17:00:30.041Z,22.48
2018-06-25T17:03:00.464Z,22.45
2018-06-25T17:05:31.031Z,22.43
2018-06-25T17:08:01.491Z,22.37
2018-06-25T17:10:32.031Z,22.29
2018-06-25T17:13:02.623Z,22.27
2018-06-25T17:15:33.126Z,22.25
2018-06-25T17:18:03.422Z,21.36
2018-06-25T17:20:33.759Z,21.99
2018-06-25T17:23:04.276Z,21.98
2018-06-25T17:25:35.147Z,21.89
2018-06-25T17:28:05.607Z,21.88
2018-06-25T17:30:36.215Z,21.85
2018-06-25T17:33:06.767Z,21.80
2018-06-25T17:35:36.975Z,21.74
2018-06-25T17:38:07.643Z,21.73
2018-06-25T17:40:38.188Z,21.23
2018-06-25T17:43:08.511Z,21.27
2018-06-25T17:45:39.028Z,20.10
2018-06-25T17:48:09.433Z,18.10
2018-06-25T17:50:40.302Z,16.95
2018-06-25T17:53:10.743Z,16.43
2018-06-25T17:55:41.076Z,16.13
2018-06-25T17:58:11.511Z,16.08
2018-06-25T18:00:41.907Z,16.01
2018-06-25T18:03:12.616Z,16.03
2018-06-25T18:05:44.210Z,16.05
2018-06-25T18:08:14.569Z,15.99
2018-06-25T18:10:44.847Z,16.05
2018-06-25T18:13:15.241Z,16.22
2018-06-25T18:15:45.730Z,16.32
2018-06-25T18:18:16.200Z,16.32
2018-06-25T18:20:46.789Z,16.42
2018-06-25T18:23:17.097Z,16.53
2018-06-25T18:25:47.460Z,16.59
2018-06-25T18:28:17.680Z,16.55
2018-06-25T18:30:48.205Z,16.53
2018-06-25T18:33:19.002Z,16.52
2018-06-25T18:35:49.312Z,16.56
2018-06-25T18:38:19.751Z,16.50
2018-06-25T18:40:50.220Z,16.44
2018-06-25T18:43:20.434Z,16.40
2018-06-25T18:45:51.274Z,16.44
2018-06-25T18:48:21.969Z,16.43
2018-06-25T18:50:52.298Z,16.60
2018-06-25T18:53:22.966Z,16.61
2018-06-25T18:55:53.437Z,16.61
2018-06-25T18:58:24.264Z,16.61
2018-06-25T19:00:54.902Z,16.72
2018-06-25T19:03:25.232Z,16.66
2018-06-25T19:05:55.575Z,16.57
2018-06-25T19:08:25.943Z,16.57
2018-06-25T19:10:56.430Z,16.60
2018-06-25T19:13:27.435Z,16.53
2018-06-25T19:15:58.005Z,16.53
2018-06-25T19:18:28.259Z,16.55
2018-06-25T19:20:58.931Z,16.56
2018-06-25T19:23:29.267Z,16.58
2018-06-25T19:25:59.678Z,16.64
2018-06-25T19:28:30.503Z,16.54
2018-06-25T19:31:00.758Z,16.48
2018-06-25T19:33:31.119Z,16.51
2018-06-25T19:36:01.360Z,16.48
2018-06-25T19:38:31.834Z,16.49
2018-06-25T19:41:02.036Z,16.51
2018-06-25T19:43:32.372Z,16.57
2018-06-25T19:46:02.570Z,16.59
2018-06-25T19:48:34.247Z,16.65
2018-06-25T19:51:04.527Z,16.70
2018-06-25T19:53:34.971Z,16.78
2018-06-25T19:56:05.383Z,16.79
2018-06-25T19:58:36.014Z,16.75
2018-06-25T20:01:06.774Z,16.81
2018-06-25T20:03:37.126Z,16.83
2018-06-25T20:06:07.562Z,16.86
2018-06-25T20:08:38.110Z,16.88
2018-06-25T20:11:08.677Z,16.93
2018-06-25T20:13:39.052Z,16.87
2018-06-25T20:16:09.629Z,16.96
2018-06-25T20:18:40.181Z,17.03
2018-06-25T20:21:10.385Z,17.06
2018-06-25T20:23:41.080Z,17.05
2018-06-25T20:26:11.472Z,17.13
2018-06-25T20:28:41.868Z,17.13
2018-06-25T20:31:12.499Z,17.03
2018-06-25T20:33:43.343Z,17.00
2018-06-25T20:36:13.644Z,16.95
2018-06-25T20:38:44.169Z,16.93
2018-06-25T20:41:14.559Z,16.92
2018-06-25T20:43:44.916Z,17.00
2018-06-25T20:46:16.179Z,17.02
2018-06-25T20:48:46.650Z,16.95
2018-06-25T20:51:16.969Z,16.88
2018-06-25T20:53:47.250Z,16.80
2018-06-25T20:56:17.504Z,16.74
2018-06-25T20:58:47.659Z,16.85
2018-06-25T21:01:21.157Z,16.88
2018-06-25T21:06:49.964Z,16.85
2018-06-25T21:09:21.980Z,16.89
2018-06-25T21:11:53.592Z,16.94
2018-06-25T21:14:25.217Z,16.96
2018-06-25T21:16:56.321Z,16.97
2018-06-25T21:19:27.695Z,16.95
2018-06-25T21:21:59.161Z,16.95
2018-06-25T21:24:29.928Z,17.01
2018-06-25T21:27:01.529Z,17.06
2018-06-25T21:29:33.252Z,17.06
2018-06-25T21:32:04.754Z,17.08
2018-06-25T21:34:36.093Z,16.93
2018-06-25T21:37:07.441Z,16.84
2018-06-25T21:39:38.435Z,16.83
2018-06-25T21:42:09.392Z,16.91
2018-06-25T21:44:40.503Z,16.84
2018-06-25T21:47:11.481Z,16.89
2018-06-25T21:49:42.269Z,16.88
2018-06-25T21:52:12.489Z,16.90
2018-06-25T21:54:42.920Z,16.92
2018-06-25T21:57:14.187Z,16.93
2018-06-25T21:59:44.567Z,16.99
2018-06-25T22:02:14.898Z,16.97
2018-06-25T22:04:45.291Z,17.02
2018-06-25T22:07:15.702Z,17.17
2018-06-25T22:09:46.169Z,17.08
2018-06-25T22:12:17.584Z,17.08
2018-06-25T22:14:48.069Z,17.04
2018-06-25T22:17:18.589Z,17.03
2018-06-25T22:19:49.239Z,17.03
2018-06-25T22:22:19.885Z,17.07
2018-06-25T22:24:50.295Z,17.03
2018-06-25T22:27:20.739Z,17.02
2018-06-25T22:29:51.915Z,17.09
2018-06-25T22:32:22.528Z,17.05
2018-06-25T22:34:52.965Z,17.15
2018-06-25T22:37:23.261Z,17.14
2018-06-25T22:39:53.688Z,17.19
2018-06-25T22:42:25.762Z,17.17
2018-06-25T22:44:56.499Z,17.10
2018-06-25T22:47:27.041Z,17.11
2018-06-25T22:49:57.407Z,17.11
2018-06-25T22:52:27.897Z,17.07
2018-06-25T22:54:58.134Z,17.11
2018-06-25T22:57:28.829Z,17.11
2018-06-25T22:59:59.246Z,17.13
2018-06-25T23:02:40.933Z,17.14
2018-06-25T23:05:14.072Z,17.14
2018-06-25T23:07:44.468Z,17.18
2018-06-25T23:10:14.716Z,17.29
2018-06-25T23:12:44.981Z,17.20
2018-06-25T23:15:15.453Z,17.23
2018-06-25T23:17:45.873Z,17.13
2018-06-25T23:20:16.304Z,17.13
2018-06-25T23:22:48.378Z,17.19
2018-06-25T23:25:19.001Z,17.11
2018-06-25T23:27:49.329Z,17.21
2018-06-25T23:30:19.975Z,17.19
2018-06-25T23:32:50.485Z,17.16
2018-06-25T23:35:20.725Z,17.27
2018-06-25T23:37:51.251Z,17.15
2018-06-25T23:40:21.651Z,17.11
2018-06-25T23:42:51.940Z,17.13
2018-06-25T23:45:22.267Z,17.13
2018-06-25T23:47:52.604Z,17.01
2018-06-25T23:50:23.135Z,17.15
2018-06-25T23:52:53.484Z,17.08
2018-06-25T23:55:23.780Z,17.10
2018-06-25T23:57:54.130Z,17.10
